createdAt,value
2019-04-23T00:02:39.325Z,100810.52
2019-04-23T00:05:08.255Z,100807.77
2019-04-23T00:10:19.276Z,100807.27
2019-04-23T00:12:52.764Z,100795.80
2019-04-23T00:15:10.551Z,100802.28
2019-04-23T00:17:48.987Z,100801.73
2019-04-23T00:23:09.314Z,100795.31
2019-04-23T00:25:49.750Z,100798.02
2019-04-23T00:28:21.634Z,100798.30
2019-04-23T00:31:06.325Z,100791.70
2019-04-23T00:35:50.120Z,100792.64
2019-04-23T00:38:26.523Z,100784.52
2019-04-23T00:43:27.206Z,100795.15
2019-04-23T00:45:55.238Z,100787.40
2019-04-23T00:50:58.263Z,100786.50
2019-04-23T00:53:46.712Z,100785.66
2019-04-23T00:56:24.944Z,100789.39
2019-04-23T01:01:27.204Z,100782.09
2019-04-23T01:03:39.485Z,100777.70
2019-04-23T01:06:12.962Z,100791.17
2019-04-23T01:08:44.130Z,100781.80
2019-04-23T01:11:16.669Z,100780.28
2019-04-23T01:13:50.434Z,100777.69
2019-04-23T01:16:18.220Z,100776.71
2019-04-23T01:21:22.482Z,100776.71
2019-04-23T01:24:19.268Z,100774.05
2019-04-23T01:27:39.758Z,100772.53
2019-04-23T01:32:32.175Z,100771.88
2019-04-23T01:35:13.885Z,100765.81
2019-04-23T01:37:39.502Z,100763.20
2019-04-23T01:40:13.576Z,100759.37
2019-04-23T01:42:40.481Z,100757.00
2019-04-23T01:45:27.073Z,100758.87
2019-04-23T01:47:45.602Z,100756.08
2019-04-23T01:55:21.377Z,100747.41
2019-04-23T01:57:58.534Z,100745.84
2019-04-23T02:00:22.468Z,100742.79
2019-04-23T02:02:57.496Z,100741.31
2019-04-23T02:05:39.687Z,100747.06
2019-04-23T02:13:02.245Z,100739.44
2019-04-23T02:15:36.325Z,100735.23
2019-04-23T02:20:42.747Z,100727.06
2019-04-23T02:26:03.043Z,100731.75
2019-04-23T02:28:53.148Z,100730.88
2019-04-23T02:31:45.136Z,100736.39
2019-04-23T02:33:53.465Z,100725.53
2019-04-23T02:38:50.091Z,100714.39
2019-04-23T02:41:27.130Z,100719.81
2019-04-23T02:44:01.114Z,100716.02
2019-04-23T02:46:13.381Z,100712.80
2019-04-23T02:54:16.420Z,100706.02
2019-04-23T02:56:41.421Z,100714.72
2019-04-23T03:01:58.042Z,100699.49
2019-04-23T03:06:47.777Z,100701.52
2019-04-23T03:09:13.396Z,100697.74
2019-04-23T03:14:16.875Z,100699.47
2019-04-23T03:17:08.770Z,100697.74
2019-04-23T03:22:37.745Z,100700.52
2019-04-23T03:25:26.159Z,100693.31
2019-04-23T03:34:26.489Z,100686.06
2019-04-23T03:38:10.649Z,100687.29
2019-04-23T03:40:15.768Z,100688.27
2019-04-23T03:43:04.364Z,100685.00
2019-04-23T03:45:36.953Z,100682.17
2019-04-23T03:47:56.617Z,100673.83
2019-04-23T03:50:35.331Z,100672.31
2019-04-23T03:52:53.516Z,100663.66
2019-04-23T03:55:39.894Z,100670.09
2019-04-23T03:58:12.144Z,100667.47
2019-04-23T04:05:49.716Z,100663.58
2019-04-23T04:08:18.369Z,100667.34
2019-04-23T04:13:28.490Z,100674.22
2019-04-23T04:28:28.888Z,100657.61
2019-04-23T04:33:49.113Z,100656.63
2019-04-23T04:38:40.006Z,100653.63
2019-04-23T04:48:40.229Z,100651.52
2019-04-23T04:51:24.337Z,100655.62
2019-04-23T05:01:28.354Z,100659.30
2019-04-23T05:03:36.583Z,100658.31
2019-04-23T05:06:24.703Z,100648.86
2019-04-23T05:09:06.790Z,100646.80
2019-04-23T05:11:34.975Z,100643.04
2019-04-23T05:16:29.294Z,100638.78
2019-04-23T05:19:23.485Z,100641.82
2019-04-23T05:24:21.420Z,100642.55
2019-04-23T05:26:37.516Z,100643.75
2019-04-23T05:29:15.248Z,100640.70
2019-04-23T05:32:10.130Z,100643.09
2019-04-23T05:39:45.559Z,100631.58
2019-04-23T05:42:15.721Z,100628.88
2019-04-23T05:47:25.425Z,100630.70
2019-04-23T05:50:00.667Z,100621.66
2019-04-23T05:52:36.050Z,100622.55
2019-04-23T05:55:08.784Z,100623.91
2019-04-23T05:57:34.521Z,100629.31
2019-04-23T06:00:10.742Z,100630.66
2019-04-23T06:02:45.827Z,100622.60
2019-04-23T06:05:16.115Z,100635.06
2019-04-23T06:07:45.671Z,100627.52
2019-04-23T06:10:13.267Z,100632.96
2019-04-23T06:12:45.328Z,100633.57
2019-04-23T06:15:20.198Z,100640.89
2019-04-23T06:17:55.860Z,100630.37
2019-04-23T06:20:28.501Z,100634.38
2019-04-23T06:22:56.090Z,100632.53
2019-04-23T06:25:47.821Z,100631.63
2019-04-23T06:28:03.421Z,100626.05
2019-04-23T06:30:38.749Z,100622.88
2019-04-23T06:32:59.342Z,100624.97
2019-04-23T06:35:39.407Z,100624.45
2019-04-23T06:38:25.701Z,100613.08
2019-04-23T06:40:34.299Z,100611.11
2019-04-23T06:43:22.571Z,100607.03
2019-04-23T06:45:42.872Z,100609.98
2019-04-23T06:48:24.338Z,100594.44
2019-04-23T06:51:02.381Z,100601.72
2019-04-23T06:53:20.939Z,100603.91
2019-04-23T06:55:59.515Z,100601.84
2019-04-23T06:58:32.461Z,100593.64
2019-04-23T07:01:00.392Z,100596.37
2019-04-23T07:03:38.332Z,100599.42
2019-04-23T07:11:23.479Z,100582.73
2019-04-23T07:13:53.192Z,100580.03
2019-04-23T07:16:14.640Z,100568.22
2019-04-23T07:26:30.440Z,100568.39
2019-04-23T07:29:07.462Z,100568.94
2019-04-23T07:31:28.474Z,100558.38
2019-04-23T07:34:01.039Z,100559.77
2019-04-23T07:39:25.546Z,100554.45
2019-04-23T07:42:10.834Z,100557.20
2019-04-23T07:44:59.716Z,100552.06
2019-04-23T07:47:47.303Z,100549.37
2019-04-23T07:50:26.080Z,100546.16
2019-04-23T07:52:51.484Z,100540.53
2019-04-23T07:55:28.411Z,100541.59
2019-04-23T07:57:59.024Z,100529.14
2019-04-23T08:00:27.671Z,100526.72
2019-04-23T08:03:02.234Z,100529.17
2019-04-23T08:05:31.978Z,100530.02
2019-04-23T08:13:10.021Z,100524.05
2019-04-23T08:15:38.352Z,100512.98
2019-04-23T08:18:07.029Z,100511.09
2019-04-23T08:20:47.417Z,100517.59
2019-04-23T08:23:25.631Z,100508.66
2019-04-23T08:26:23.898Z,100506.22
2019-04-23T08:28:51.634Z,100506.52
2019-04-23T08:31:15.223Z,100507.55
2019-04-23T08:33:51.298Z,100495.39
2019-04-23T08:36:20.127Z,100498.67
2019-04-23T08:38:50.800Z,100496.78
2019-04-23T08:41:26.877Z,100493.48
2019-04-23T08:44:01.011Z,100479.96
2019-04-23T08:47:15.607Z,100484.77
2019-04-23T08:49:36.219Z,100483.17
2019-04-23T08:54:45.029Z,100470.73
2019-04-23T08:59:45.222Z,100459.03
2019-04-23T09:02:31.234Z,100463.58
2019-04-23T09:07:16.471Z,100461.63
2019-04-23T09:09:56.791Z,100457.35
2019-04-23T09:12:18.442Z,100455.17
2019-04-23T09:14:48.534Z,100449.42
2019-04-23T09:17:21.199Z,100447.47
2019-04-23T09:20:07.137Z,100433.91
2019-04-23T09:22:29.621Z,100431.22
2019-04-23T09:24:55.733Z,100441.67
2019-04-23T09:27:27.317Z,100435.48
2019-04-23T09:30:00.673Z,100433.48
2019-04-23T09:32:28.359Z,100423.70
2019-04-23T09:35:20.976Z,100411.49
2019-04-23T09:38:07.263Z,100400.38
2019-04-23T09:41:19.864Z,100393.84
2019-04-23T09:44:07.672Z,100396.59
2019-04-23T09:47:01.935Z,100390.05
2019-04-23T09:49:32.734Z,100383.78
2019-04-23T09:52:00.767Z,100369.92
2019-04-23T09:54:33.935Z,100358.12
2019-04-23T09:57:02.326Z,100354.58
2019-04-23T09:59:40.926Z,100348.33
2019-04-23T10:02:02.681Z,100363.72
2019-04-23T10:04:26.596Z,100358.94
2019-04-23T10:07:00.350Z,100352.87
2019-04-23T10:09:16.680Z,100346.19
2019-04-23T10:11:47.251Z,100344.57
2019-04-23T10:14:18.651Z,100343.28
2019-04-23T10:16:49.391Z,100350.92
2019-04-23T10:19:19.565Z,100350.25
2019-04-23T10:21:51.245Z,100343.13
2019-04-23T10:24:21.470Z,100336.08
2019-04-23T10:26:52.260Z,100340.55
2019-04-23T10:29:25.836Z,100343.50
2019-04-23T10:31:55.867Z,100336.26
2019-04-23T10:34:27.407Z,100330.75
2019-04-23T10:36:57.662Z,100332.00
2019-04-23T10:39:32.411Z,100329.44
2019-04-23T10:42:01.844Z,100316.50
2019-04-23T10:45:10.863Z,100311.92
2019-04-23T10:48:31.710Z,100295.03
2019-04-23T10:51:25.615Z,100297.05
2019-04-23T10:53:38.237Z,100279.19
2019-04-23T10:56:13.519Z,100283.27
2019-04-23T11:03:58.935Z,100287.69
2019-04-23T11:06:23.427Z,100278.11
2019-04-23T11:08:51.844Z,100264.25
2019-04-23T11:11:24.136Z,100270.80
2019-04-23T11:13:53.526Z,100264.32
2019-04-23T11:21:47.678Z,100243.53
2019-04-23T11:24:11.854Z,100246.59
2019-04-23T11:26:34.459Z,100237.23
2019-04-23T11:29:17.703Z,100245.36
2019-04-23T11:31:44.930Z,100237.66
2019-04-23T11:34:30.347Z,100230.59
2019-04-23T11:39:18.802Z,100219.06
2019-04-23T11:42:04.959Z,100235.64
2019-04-23T11:49:44.987Z,100214.30
2019-04-23T11:52:01.688Z,100222.77
2019-04-23T11:54:27.742Z,100221.33
2019-04-23T11:57:27.159Z,100218.62
2019-04-23T12:02:06.342Z,100211.25
2019-04-23T12:04:57.602Z,100211.59
2019-04-23T12:07:23.837Z,100206.19
2019-04-23T12:10:20.027Z,100214.38
2019-04-23T12:15:18.423Z,100199.71
2019-04-23T12:17:48.979Z,100196.93
2019-04-23T12:20:21.436Z,100179.74
2019-04-23T12:27:42.183Z,100180.38
2019-04-23T12:30:36.243Z,100176.14
2019-04-23T12:35:27.610Z,100181.34
2019-04-23T12:38:14.248Z,100179.68
2019-04-23T12:40:51.145Z,100166.23
2019-04-23T12:43:13.300Z,100165.98
2019-04-23T12:45:37.463Z,100163.89
2019-04-23T12:48:29.688Z,100171.25
2019-04-23T12:50:48.812Z,100171.67
2019-04-23T12:53:25.857Z,100163.77
2019-04-23T12:55:48.111Z,100158.18
2019-04-23T13:00:48.233Z,100149.05
2019-04-23T13:05:48.945Z,100143.94
2019-04-23T13:08:44.622Z,100127.34
2019-04-23T13:10:57.703Z,100132.03
2019-04-23T13:16:02.521Z,100135.69
2019-04-23T13:18:38.125Z,100132.08
2019-04-23T13:21:05.329Z,100121.05
2019-04-23T13:26:05.814Z,100117.08
2019-04-23T13:28:45.202Z,100113.95
2019-04-23T13:31:16.299Z,100126.61
2019-04-23T13:36:29.053Z,100109.04
2019-04-23T13:38:52.671Z,100107.73
2019-04-23T13:43:47.889Z,100103.42
2019-04-23T13:46:28.818Z,100091.46
2019-04-23T13:48:58.907Z,100082.11
2019-04-23T13:51:46.777Z,100089.02
2019-04-23T13:54:08.165Z,100093.19
2019-04-23T13:57:05.847Z,100081.77
2019-04-23T14:01:39.557Z,100069.08
2019-04-23T14:04:33.393Z,100081.20
2019-04-23T14:09:39.516Z,100065.45
2019-04-23T14:11:59.329Z,100070.44
2019-04-23T14:14:41.324Z,100066.59
2019-04-23T14:17:18.701Z,100050.69
2019-04-23T14:19:34.310Z,100046.98
2019-04-23T14:22:40.557Z,100044.17
2019-04-23T14:24:54.602Z,100052.52
2019-04-23T14:27:20.824Z,100051.23
2019-04-23T14:32:30.772Z,100042.27
2019-04-23T14:35:05.973Z,100041.05
2019-04-23T14:37:16.808Z,100038.61
2019-04-23T14:39:57.418Z,100025.70
2019-04-23T14:42:33.787Z,100029.95
2019-04-23T14:45:13.544Z,100022.45
2019-04-23T14:47:47.840Z,100022.16
2019-04-23T14:50:26.340Z,100019.06
2019-04-23T14:52:38.837Z,100014.09
2019-04-23T15:00:18.287Z,100024.53
2019-04-23T15:05:19.803Z,100029.91
2019-04-23T15:08:06.235Z,100015.05
2019-04-23T15:12:52.302Z,100006.49
2019-04-23T15:17:55.642Z,100013.55
2019-04-23T15:20:33.143Z,100013.70
2019-04-23T15:25:53.316Z,100011.94
2019-04-23T15:30:34.110Z,100011.67
2019-04-23T15:35:57.790Z,100000.61
2019-04-23T15:40:42.072Z,99995.55
2019-04-23T15:43:19.913Z,100004.70
2019-04-23T15:45:52.337Z,100000.92
2019-04-23T15:48:26.340Z,99994.02
2019-04-23T15:50:51.682Z,100007.53
2019-04-23T15:53:17.478Z,99999.59
2019-04-23T15:55:59.589Z,99998.88
2019-04-23T15:58:36.423Z,99995.69
2019-04-23T16:01:27.134Z,99991.61
2019-04-23T16:03:20.598Z,99999.36
2019-04-23T16:05:51.016Z,100001.30
2019-04-23T16:09:01.669Z,99995.08
2019-04-23T16:16:38.756Z,99997.16
2019-04-23T16:22:01.602Z,100004.55
2019-04-23T16:24:22.277Z,99997.14
2019-04-23T16:27:01.326Z,99995.78
2019-04-23T16:32:10.039Z,99998.36
2019-04-23T16:34:34.003Z,99988.98
2019-04-23T16:37:15.355Z,99990.20
2019-04-23T16:39:54.641Z,99989.23
2019-04-23T16:45:05.992Z,99990.76
2019-04-23T16:47:23.966Z,99982.23
2019-04-23T16:50:04.552Z,99980.02
2019-04-23T16:54:58.629Z,99981.86
2019-04-23T16:57:35.971Z,99980.55
2019-04-23T17:00:26.012Z,99986.02
2019-04-23T17:02:34.388Z,99977.22
2019-04-23T17:05:16.084Z,99979.23
2019-04-23T17:07:53.353Z,99979.88
2019-04-23T17:12:54.791Z,99978.95
2019-04-23T17:15:27.422Z,99979.12
2019-04-23T17:17:56.375Z,99977.38
2019-04-23T17:23:31.237Z,99970.70
2019-04-23T17:25:53.772Z,99969.03
2019-04-23T17:31:03.932Z,99978.71
2019-04-23T17:38:59.234Z,99975.03
2019-04-23T17:41:48.646Z,99978.02
2019-04-23T17:46:50.895Z,99975.28
2019-04-23T17:49:28.658Z,99970.17
2019-04-23T17:54:24.962Z,99984.88
2019-04-23T17:57:02.953Z,99976.30
2019-04-23T18:00:00.579Z,99984.70
2019-04-23T18:02:40.667Z,99985.83
2019-04-23T18:05:00.688Z,99988.00
2019-04-23T18:07:34.007Z,99992.08
2019-04-23T18:10:12.382Z,99986.18
2019-04-23T18:12:40.523Z,99989.88
2019-04-23T18:15:00.386Z,99984.28
2019-04-23T18:17:37.769Z,100001.15
2019-04-23T18:20:16.729Z,99987.36
2019-04-23T18:22:53.920Z,99989.97
2019-04-23T18:25:43.310Z,100000.33
2019-04-23T18:28:22.636Z,100000.91
2019-04-23T18:31:00.004Z,100000.55
2019-04-23T18:34:00.618Z,100002.39
2019-04-23T18:36:05.061Z,100006.10
2019-04-23T18:38:52.995Z,100009.91
2019-04-23T18:43:42.973Z,100013.63
2019-04-23T18:46:18.669Z,100013.10
2019-04-23T18:48:54.665Z,100011.02
2019-04-23T18:51:15.317Z,100022.13
2019-04-23T18:56:20.821Z,100016.05
2019-04-23T18:59:00.855Z,100017.45
2019-04-23T19:04:29.314Z,100019.77
2019-04-23T19:06:44.163Z,100014.98
2019-04-23T19:13:00.173Z,100001.89
2019-04-23T19:15:36.791Z,100020.80
2019-04-23T19:17:56.450Z,100013.18
2019-04-23T19:20:56.247Z,100011.05
2019-04-23T19:23:16.056Z,100018.80
2019-04-23T19:25:38.724Z,100010.22
2019-04-23T19:28:30.691Z,100016.68
2019-04-23T19:31:07.420Z,100015.53
2019-04-23T19:34:02.893Z,100020.58
2019-04-23T19:36:19.056Z,100014.05
2019-04-23T19:38:59.262Z,100016.44
2019-04-23T19:41:19.548Z,100016.45
2019-04-23T19:43:55.654Z,100023.80
2019-04-23T19:46:33.973Z,100017.28
2019-04-23T19:49:03.240Z,100019.56
2019-04-23T19:51:37.187Z,100017.34
2019-04-23T19:54:09.549Z,100021.08
2019-04-23T19:56:37.740Z,100014.53
2019-04-23T19:59:01.925Z,100005.47
2019-04-23T20:01:43.489Z,100006.50
2019-04-23T20:04:23.536Z,100003.19
2019-04-23T20:09:30.286Z,100007.55
2019-04-23T20:11:52.801Z,100000.03
2019-04-23T20:14:11.835Z,99997.37
2019-04-23T20:17:04.101Z,99990.72
2019-04-23T20:19:23.913Z,99994.14
2019-04-23T20:22:07.475Z,99993.56
2019-04-23T20:24:49.434Z,99998.03
2019-04-23T20:26:59.250Z,99997.95
2019-04-23T20:30:02.810Z,99993.50
2019-04-23T20:37:57.935Z,99993.80
2019-04-23T20:40:23.547Z,99985.59
2019-04-23T20:42:34.694Z,99986.23
2019-04-23T20:45:04.844Z,99987.94
2019-04-23T20:47:45.605Z,99989.58
2019-04-23T20:50:03.726Z,99979.92
2019-04-23T20:52:43.075Z,99978.13
2019-04-23T20:55:19.721Z,99984.32
2019-04-23T20:57:47.316Z,99976.68
2019-04-23T21:00:35.930Z,99981.48
2019-04-23T21:03:25.674Z,99978.48
2019-04-23T21:06:00.276Z,99982.48
2019-04-23T21:08:45.095Z,99983.30
2019-04-23T21:15:45.670Z,99971.26
2019-04-23T21:18:26.449Z,99975.31
2019-04-23T21:20:48.849Z,99968.53
2019-04-23T21:23:37.735Z,99974.55
2019-04-23T21:28:36.563Z,99967.56
2019-04-23T21:31:07.059Z,99977.58
2019-04-23T21:33:46.120Z,99970.72
2019-04-23T21:41:52.696Z,99975.66
2019-04-23T21:44:13.544Z,99973.27
2019-04-23T21:46:51.384Z,99971.34
2019-04-23T21:49:24.763Z,99977.07
2019-04-23T21:51:50.831Z,99977.47
2019-04-23T21:54:27.374Z,99977.15
2019-04-23T21:59:17.658Z,99974.23
2019-04-23T22:01:59.063Z,99973.05
2019-04-23T22:04:37.602Z,99975.38
2019-04-23T22:07:02.531Z,99977.00
2019-04-23T22:12:11.788Z,99969.63
2019-04-23T22:14:40.024Z,99973.27
2019-04-23T22:17:20.546Z,99967.88
2019-04-23T22:19:49.912Z,99966.56
2019-04-23T22:22:12.574Z,99967.70
2019-04-23T22:24:48.309Z,99971.08
2019-04-23T22:27:16.591Z,99963.73
2019-04-23T22:32:31.123Z,99953.67
2019-04-23T22:37:32.409Z,99963.48
2019-04-23T22:39:58.952Z,99959.93
2019-04-23T22:42:57.120Z,99963.98
2019-04-23T22:45:12.267Z,99963.07
2019-04-23T22:47:33.734Z,99960.28
2019-04-23T22:50:05.899Z,99958.27
2019-04-23T22:52:40.739Z,99957.73
2019-04-23T22:55:07.380Z,99958.98
2019-04-23T22:57:58.775Z,99959.73
2019-04-23T23:00:14.421Z,99957.27
2019-04-23T23:02:59.498Z,99957.60
2019-04-23T23:05:53.106Z,99970.82
2019-04-23T23:10:43.034Z,99967.61
2019-04-23T23:15:46.213Z,99964.45
2019-04-23T23:18:14.372Z,99965.52
2019-04-23T23:20:46.363Z,99957.66
2019-04-23T23:25:51.449Z,99951.41
2019-04-23T23:30:57.984Z,99950.62
2019-04-23T23:33:24.682Z,99946.25
2019-04-23T23:36:03.602Z,99951.17
2019-04-23T23:38:33.475Z,99946.72
2019-04-23T23:41:12.400Z,99938.22
2019-04-23T23:43:31.639Z,99943.96
2019-04-23T23:46:17.269Z,99932.33
2019-04-23T23:48:35.613Z,99935.56
2019-04-23T23:53:50.558Z,99934.34
2019-04-23T23:58:58.875Z,99928.06
